createdAt,value
2022-08-23T00:00:57.270Z,99766.32
2022-08-23T00:03:29.275Z,99775.49
2022-08-23T00:05:59.595Z,99768.37
2022-08-23T00:08:30.050Z,99765.59
2022-08-23T00:11:00.998Z,99765.45
2022-08-23T00:13:47.276Z,99765.45
2022-08-23T00:16:04.052Z,99760.22
2022-08-23T00:18:35.165Z,99760.22
2022-08-23T00:21:05.540Z,99748.33
2022-08-23T00:23:36.646Z,99756.44
2022-08-23T00:26:07.095Z,99756.44
2022-08-23T00:28:37.673Z,99751.20
2022-08-23T00:31:08.135Z,99748.38
2022-08-23T00:33:38.641Z,99758.45
2022-08-23T00:36:09.276Z,99764.31
2022-08-23T00:38:40.424Z,99760.30
2022-08-23T00:41:11.063Z,99757.66
2022-08-23T00:43:42.803Z,99757.66
2022-08-23T00:46:31.496Z,99763.52
2022-08-23T00:49:04.473Z,99765.34
2022-08-23T00:51:52.276Z,99768.99
2022-08-23T00:54:14.636Z,99765.77
2022-08-23T00:56:45.219Z,99770.84
2022-08-23T00:59:15.633Z,99773.13
2022-08-23T01:01:46.008Z,99777.34
2022-08-23T01:04:18.142Z,99776.70
2022-08-23T01:07:06.331Z,99776.74
2022-08-23T01:09:40.512Z,99777.02
2022-08-23T01:12:13.773Z,99779.69
2022-08-23T01:14:52.825Z,99785.52
2022-08-23T01:17:28.912Z,99790.58
2022-08-23T01:20:02.309Z,99790.58
2022-08-23T01:22:51.640Z,99792.43
2022-08-23T01:25:24.792Z,99789.63
2022-08-23T01:27:55.368Z,99789.44
2022-08-23T01:30:28.589Z,99789.44
2022-08-23T01:33:02.143Z,99786.41
2022-08-23T01:35:39.476Z,99781.95
2022-08-23T01:38:11.832Z,99781.95
2022-08-23T01:40:45.192Z,99792.27
2022-08-23T01:43:17.027Z,99792.33
2022-08-23T01:45:48.925Z,99803.82
2022-08-23T01:48:20.790Z,99803.82
2022-08-23T01:50:51.383Z,99802.44
2022-08-23T01:53:22.089Z,99802.44
2022-08-23T01:55:52.472Z,99804.72
2022-08-23T01:58:22.917Z,99807.53
2022-08-23T02:00:53.351Z,99818.63
2022-08-23T02:03:24.043Z,99818.45
2022-08-23T02:05:55.212Z,99818.03
2022-08-23T02:08:26.273Z,99818.03
2022-08-23T02:10:57.461Z,99819.67
2022-08-23T02:13:27.764Z,99822.30
2022-08-23T02:15:59.505Z,99822.55
2022-08-23T02:18:33.776Z,99828.82
2022-08-23T02:21:05.542Z,99828.82
2022-08-23T02:23:36.111Z,99824.14
2022-08-23T02:26:07.379Z,99832.63
2022-08-23T02:28:38.056Z,99834.48
2022-08-23T02:31:08.991Z,99834.48
2022-08-23T02:33:42.059Z,99828.40
2022-08-23T02:36:12.462Z,99832.45
2022-08-23T02:38:43.117Z,99832.45
2022-08-23T02:41:13.806Z,99830.66
2022-08-23T02:43:45.320Z,99833.48
2022-08-23T02:46:15.997Z,99841.36
2022-08-23T02:48:46.497Z,99847.24
2022-08-23T02:51:18.702Z,99847.66
2022-08-23T02:53:49.247Z,99847.66
2022-08-23T02:56:21.686Z,99848.05
2022-08-23T02:58:54.230Z,99850.30
2022-08-23T03:01:28.217Z,99848.13
2022-08-23T03:03:59.667Z,99848.13
2022-08-23T03:06:30.278Z,99858.80
2022-08-23T03:09:00.855Z,99852.94
2022-08-23T03:11:31.205Z,99867.91
2022-08-23T03:14:02.327Z,99866.48
2022-08-23T03:16:33.459Z,99869.92
2022-08-23T03:19:04.143Z,99871.33
2022-08-23T03:21:36.007Z,99870.73
2022-08-23T03:24:10.163Z,99871.33
2022-08-23T03:26:40.719Z,99869.54
2022-08-23T03:29:11.153Z,99871.95
2022-08-23T03:31:41.909Z,99872.76
2022-08-23T03:34:12.855Z,99872.76
2022-08-23T03:36:43.618Z,99884.07
2022-08-23T03:39:14.417Z,99884.07
2022-08-23T03:41:45.518Z,99888.92
2022-08-23T03:44:16.293Z,99887.91
2022-08-23T03:46:50.414Z,99890.94
2022-08-23T03:49:21.162Z,99892.38
2022-08-23T03:51:51.483Z,99895.19
2022-08-23T03:54:29.037Z,99892.96
2022-08-23T03:57:05.298Z,99897.20
2022-08-23T03:59:39.046Z,99897.20
2022-08-23T04:02:09.969Z,99891.12
2022-08-23T04:07:10.287Z,99901.06
2022-08-23T04:09:41.748Z,99908.94
2022-08-23T04:12:17.850Z,99910.34
2022-08-23T04:14:48.772Z,99910.34
2022-08-23T04:17:22.116Z,99919.03
2022-08-23T04:19:53.020Z,99919.03
2022-08-23T04:22:24.967Z,99919.42
2022-08-23T04:24:55.454Z,99919.44
2022-08-23T04:27:26.049Z,99919.62
2022-08-23T04:29:56.539Z,99917.61
2022-08-23T04:32:29.387Z,99917.61
2022-08-23T04:35:00.582Z,99921.05
2022-08-23T04:37:32.754Z,99923.48
2022-08-23T04:40:03.646Z,99923.48
2022-08-23T04:42:34.266Z,99931.77
2022-08-23T04:45:05.591Z,99935.80
2022-08-23T04:47:36.062Z,99940.45
2022-08-23T04:50:07.495Z,99945.09
2022-08-23T04:52:38.560Z,99945.47
2022-08-23T04:55:09.090Z,99946.68
2022-08-23T04:57:40.993Z,99947.65
2022-08-23T05:00:12.997Z,99951.50
2022-08-23T05:02:44.312Z,99951.50
2022-08-23T05:05:15.843Z,99952.31
2022-08-23T05:07:46.974Z,99957.73
2022-08-23T05:10:17.928Z,99957.73
2022-08-23T05:12:49.291Z,99964.56
2022-08-23T05:15:20.294Z,99965.53
2022-08-23T05:17:51.039Z,99963.87
2022-08-23T05:20:21.644Z,99963.87
2022-08-23T05:22:52.607Z,99969.26
2022-08-23T05:25:23.718Z,99969.26
2022-08-23T05:27:58.556Z,99981.50
2022-08-23T05:30:29.146Z,99980.81
2022-08-23T05:33:01.375Z,99987.00
2022-08-23T05:35:33.232Z,99990.78
2022-08-23T05:38:03.746Z,99988.69
2022-08-23T05:40:34.242Z,99988.69
2022-08-23T05:43:05.383Z,99989.84
2022-08-23T05:45:36.670Z,99995.06
2022-08-23T05:48:09.292Z,99999.27
2022-08-23T05:50:40.732Z,100004.97
2022-08-23T05:53:11.216Z,100004.97
2022-08-23T05:55:41.811Z,100003.92
2022-08-23T05:58:12.301Z,100009.06
2022-08-23T06:00:43.005Z,100009.89
2022-08-23T06:03:13.757Z,100015.45
2022-08-23T06:05:44.235Z,100015.33
2022-08-23T06:08:14.743Z,100017.73
2022-08-23T06:10:45.239Z,100021.52
2022-08-23T06:13:16.342Z,100020.72
2022-08-23T06:15:47.375Z,100020.72
2022-08-23T06:18:17.641Z,100032.27
2022-08-23T06:20:48.023Z,100032.27
2022-08-23T06:23:18.461Z,100035.47
2022-08-23T06:25:49.629Z,100041.81
2022-08-23T06:28:20.114Z,100036.73
2022-08-23T06:30:56.522Z,100040.98
2022-08-23T06:33:27.027Z,100040.98
2022-08-23T06:36:09.177Z,100037.73
2022-08-23T06:38:40.840Z,100039.90
2022-08-23T06:41:13.060Z,100045.42
2022-08-23T06:43:44.029Z,100047.50
2022-08-23T06:46:17.640Z,100047.50
2022-08-23T06:48:50.058Z,100052.20
2022-08-23T06:54:26.441Z,100059.27
2022-08-23T06:56:57.300Z,100058.41
2022-08-23T06:59:28.320Z,100058.41
2022-08-23T07:02:04.910Z,100061.64
2022-08-23T07:04:39.043Z,100067.55
2022-08-23T07:07:11.898Z,100066.23
2022-08-23T07:09:42.514Z,100062.75
2022-08-23T07:12:13.623Z,100062.75
2022-08-23T07:14:44.368Z,100065.07
2022-08-23T07:17:15.892Z,100065.07
2022-08-23T07:19:46.333Z,100073.00
2022-08-23T07:22:16.813Z,100073.00
2022-08-23T07:24:50.001Z,100081.30
2022-08-23T07:27:24.865Z,100086.87
2022-08-23T07:29:55.693Z,100086.87
2022-08-23T07:32:26.245Z,100082.28
2022-08-23T07:34:56.834Z,100087.07
2022-08-23T07:37:27.261Z,100079.32
2022-08-23T07:39:58.608Z,100079.32
2022-08-23T07:42:29.285Z,100081.73
2022-08-23T07:45:00.681Z,100081.36
2022-08-23T07:47:31.598Z,100081.36
2022-08-23T07:50:02.607Z,100083.47
2022-08-23T07:52:33.690Z,100099.92
2022-08-23T07:55:04.333Z,100099.92
2022-08-23T07:57:35.303Z,100103.19
2022-08-23T08:00:07.295Z,100094.64
2022-08-23T08:02:38.371Z,100098.13
2022-08-23T08:05:09.194Z,100098.13
2022-08-23T08:07:40.050Z,100106.98
2022-08-23T08:10:10.633Z,100093.99
2022-08-23T08:12:41.699Z,100104.44
2022-08-23T08:15:12.302Z,100097.65
2022-08-23T08:17:43.788Z,100119.67
2022-08-23T08:20:14.548Z,100119.67
2022-08-23T08:22:48.018Z,100099.06
2022-08-23T08:25:16.888Z,100099.06
2022-08-23T08:27:48.076Z,100109.45
2022-08-23T08:30:18.633Z,100099.42
2022-08-23T08:32:49.509Z,100101.95
2022-08-23T08:35:19.975Z,100089.06
2022-08-23T08:37:50.394Z,100097.70
2022-08-23T08:40:23.601Z,100095.08
2022-08-23T08:42:56.875Z,100107.84
2022-08-23T08:45:30.371Z,100096.70
2022-08-23T08:48:13.731Z,100101.44
2022-08-23T08:50:47.228Z,100101.44
2022-08-23T08:53:23.334Z,100093.38
2022-08-23T08:55:56.493Z,100101.69
2022-08-23T08:58:30.236Z,100093.69
2022-08-23T09:01:01.224Z,100097.64
2022-08-23T09:03:35.083Z,100097.64
2022-08-23T09:06:11.651Z,100095.45
2022-08-23T09:08:51.847Z,100087.77
2022-08-23T09:11:45.469Z,100097.84
2022-08-23T09:14:24.652Z,100090.19
2022-08-23T09:17:01.042Z,100090.18
2022-08-23T09:19:34.873Z,100094.84
2022-08-23T09:22:08.054Z,100086.16
2022-08-23T09:24:39.716Z,100085.87
2022-08-23T09:27:11.581Z,100106.85
2022-08-23T09:29:46.874Z,100098.66
2022-08-23T09:32:38.671Z,100106.47
2022-08-23T09:35:16.656Z,100106.47
2022-08-23T09:37:57.033Z,100110.12
2022-08-23T09:40:30.519Z,100110.12
2022-08-23T09:43:37.572Z,100103.54
2022-08-23T09:46:08.042Z,100098.27
2022-08-23T09:48:44.630Z,100097.82
2022-08-23T09:54:19.226Z,100104.31
2022-08-23T09:57:16.128Z,100104.31
2022-08-23T09:59:49.110Z,100097.13
2022-08-23T10:02:30.778Z,100104.50
2022-08-23T10:05:04.874Z,100104.50
2022-08-23T10:07:42.398Z,100099.83
2022-08-23T10:10:38.243Z,100096.27
2022-08-23T10:13:08.702Z,100091.48
2022-08-23T10:15:54.284Z,100103.06
2022-08-23T10:18:53.609Z,100094.61
2022-08-23T10:21:44.700Z,100104.87
2022-08-23T10:24:30.129Z,100093.65
2022-08-23T10:27:22.116Z,100088.84
2022-08-23T10:29:58.392Z,100090.38
2022-08-23T10:32:40.347Z,100090.38
2022-08-23T10:38:30.180Z,100099.05
2022-08-23T10:41:22.537Z,100095.38
2022-08-23T10:44:05.081Z,100098.42
2022-08-23T10:46:38.523Z,100095.58
2022-08-23T10:49:11.986Z,100090.11
2022-08-23T10:51:47.951Z,100093.73
2022-08-23T10:54:34.965Z,100093.73
2022-08-23T10:57:06.826Z,100106.27
2022-08-23T10:59:38.550Z,100105.59
2022-08-23T11:02:34.857Z,100110.70
2022-08-23T11:05:20.066Z,100111.66
2022-08-23T11:08:11.372Z,100099.16
2022-08-23T11:10:56.279Z,100112.30
2022-08-23T11:13:22.310Z,100103.33
2022-08-23T11:16:03.332Z,100104.16
2022-08-23T11:18:48.989Z,100104.16
2022-08-23T11:21:28.075Z,100095.79
2022-08-23T11:24:01.464Z,100095.79
2022-08-23T11:26:40.864Z,100102.67
2022-08-23T11:29:34.269Z,100102.58
2022-08-23T11:34:58.192Z,100098.93
2022-08-23T11:37:31.865Z,100098.93
2022-08-23T11:40:09.594Z,100091.56
2022-08-23T11:42:51.402Z,100082.28
2022-08-23T11:45:40.653Z,100093.00
2022-08-23T11:48:25.825Z,100081.50
2022-08-23T11:51:19.360Z,100081.50
2022-08-23T11:53:55.649Z,100088.10
2022-08-23T11:56:32.025Z,100085.25
2022-08-23T11:59:41.762Z,100104.06
2022-08-23T12:02:45.395Z,100083.11
2022-08-23T12:05:19.613Z,100083.11
2022-08-23T12:08:05.347Z,100089.16
2022-08-23T12:10:44.831Z,100079.92
2022-08-23T12:13:24.790Z,100085.80
2022-08-23T12:16:16.169Z,100085.80
2022-08-23T12:19:13.686Z,100070.33
2022-08-23T12:21:48.896Z,100079.04
2022-08-23T12:24:25.329Z,100079.04
2022-08-23T12:27:05.456Z,100077.39
2022-08-23T12:29:48.467Z,100077.94
2022-08-23T12:32:30.896Z,100083.47
2022-08-23T12:35:32.844Z,100073.51
2022-08-23T12:38:17.268Z,100075.12
2022-08-23T12:40:50.894Z,100075.12
2022-08-23T12:46:20.704Z,100084.93
2022-08-23T12:48:52.134Z,100093.78
2022-08-23T12:51:22.765Z,100093.78
2022-08-23T12:53:53.332Z,100082.61
2022-08-23T12:56:31.437Z,100082.61
2022-08-23T12:59:04.471Z,100082.98
2022-08-23T13:01:38.592Z,100097.47
2022-08-23T13:04:15.854Z,100097.47
2022-08-23T13:06:58.793Z,100083.70
2022-08-23T13:09:36.531Z,100089.03
2022-08-23T13:12:09.965Z,100087.75
2022-08-23T13:14:49.980Z,100093.86
2022-08-23T13:17:35.751Z,100094.70
2022-08-23T13:20:24.533Z,100084.07
2022-08-23T13:22:59.655Z,100094.34
2022-08-23T13:25:36.522Z,100085.03
2022-08-23T13:28:31.164Z,100085.03
2022-08-23T13:31:07.655Z,100087.89
2022-08-23T13:33:40.916Z,100103.98
2022-08-23T13:36:19.117Z,100088.98
2022-08-23T13:38:51.548Z,100096.64
2022-08-23T13:41:38.868Z,100083.73
2022-08-23T13:44:08.400Z,100088.81
2022-08-23T13:46:44.765Z,100088.81
2022-08-23T13:49:24.614Z,100086.84
2022-08-23T13:52:37.565Z,100086.08
2022-08-23T13:54:37.969Z,100077.23
2022-08-23T13:57:16.102Z,100080.71
2022-08-23T13:59:55.330Z,100074.97
2022-08-23T14:02:25.934Z,100072.30
2022-08-23T14:04:56.842Z,100067.00
2022-08-23T14:07:27.531Z,100067.00
2022-08-23T14:09:58.089Z,100069.12
2022-08-23T14:12:31.878Z,100061.19
2022-08-23T14:15:03.898Z,100055.30
2022-08-23T14:17:38.276Z,100064.02
2022-08-23T14:22:44.871Z,100051.55
2022-08-23T14:25:15.646Z,100065.92
2022-08-23T14:27:48.095Z,100055.20
2022-08-23T14:30:29.518Z,100059.80
2022-08-23T14:33:01.377Z,100061.39
2022-08-23T14:35:32.334Z,100060.78
2022-08-23T14:38:04.386Z,100054.39
2022-08-23T14:40:36.716Z,100050.32
2022-08-23T14:43:10.166Z,100051.09
2022-08-23T14:45:40.691Z,100050.84
2022-08-23T14:48:11.610Z,100043.72
2022-08-23T14:50:43.297Z,100052.03
2022-08-23T14:53:17.126Z,100044.15
2022-08-23T14:55:47.875Z,100039.17
2022-08-23T14:58:18.651Z,100039.17
2022-08-23T15:00:50.441Z,100038.77
2022-08-23T15:03:26.760Z,100032.12
2022-08-23T15:05:57.661Z,100031.57
2022-08-23T15:08:31.273Z,100024.11
2022-08-23T15:13:41.579Z,100022.58
2022-08-23T15:16:10.003Z,100022.58
2022-08-23T15:18:42.539Z,100026.13
2022-08-23T15:21:14.245Z,100026.13
2022-08-23T15:23:45.237Z,100029.88
2022-08-23T15:26:21.615Z,100029.98
2022-08-23T15:28:52.980Z,100026.57
2022-08-23T15:31:23.999Z,100030.69
2022-08-23T15:33:54.715Z,100022.39
2022-08-23T15:36:26.743Z,100022.39
2022-08-23T15:38:58.001Z,100023.53
2022-08-23T15:41:30.765Z,100026.58
2022-08-23T15:44:02.226Z,100029.63
2022-08-23T15:46:33.244Z,100030.44
2022-08-23T15:49:17.170Z,100029.94
2022-08-23T15:51:49.506Z,100029.94
2022-08-23T15:54:20.125Z,100022.59
2022-08-23T15:56:51.629Z,100031.88
2022-08-23T15:59:25.033Z,100031.88
2022-08-23T16:01:55.705Z,100028.89
2022-08-23T16:04:26.438Z,100028.89
2022-08-23T16:07:02.291Z,100026.23
2022-08-23T16:09:35.402Z,100027.70
2022-08-23T16:12:09.057Z,100036.13
2022-08-23T16:14:46.541Z,100038.11
2022-08-23T16:17:21.863Z,100037.94
2022-08-23T16:19:56.531Z,100035.45
2022-08-23T16:22:30.094Z,100041.95
2022-08-23T16:25:00.961Z,100046.78
2022-08-23T16:27:34.454Z,100046.78
2022-08-23T16:30:13.784Z,100044.40
2022-08-23T16:32:46.903Z,100054.99
2022-08-23T16:35:18.457Z,100054.99
2022-08-23T16:37:50.677Z,100050.75
2022-08-23T16:40:22.261Z,100048.81
2022-08-23T16:42:53.560Z,100052.13
2022-08-23T16:45:25.130Z,100051.25
2022-08-23T16:47:56.829Z,100055.13
2022-08-23T16:50:35.900Z,100060.85
2022-08-23T16:53:07.715Z,100063.44
2022-08-23T16:55:40.163Z,100063.44
2022-08-23T16:58:10.846Z,100066.66
2022-08-23T17:00:43.013Z,100063.89
2022-08-23T17:03:13.527Z,100070.59
2022-08-23T17:05:47.588Z,100070.74
2022-08-23T17:08:20.358Z,100080.53
2022-08-23T17:10:52.067Z,100079.44
2022-08-23T17:13:22.827Z,100079.44
2022-08-23T17:15:53.301Z,100074.94
2022-08-23T17:18:32.803Z,100080.95
2022-08-23T17:21:05.448Z,100073.59
2022-08-23T17:23:37.647Z,100073.59
2022-08-23T17:26:12.571Z,100083.97
2022-08-23T17:28:43.170Z,100083.97
2022-08-23T17:31:14.120Z,100084.48
2022-08-23T17:33:44.597Z,100081.77
2022-08-23T17:36:29.915Z,100091.94
2022-08-23T17:39:01.288Z,100091.94
2022-08-23T17:41:35.088Z,100086.32
2022-08-23T17:44:06.240Z,100086.91
2022-08-23T17:46:39.274Z,100093.48
2022-08-23T17:49:10.563Z,100093.48
2022-08-23T17:51:42.076Z,100093.38
2022-08-23T17:54:12.934Z,100092.64
2022-08-23T17:56:50.411Z,100095.63
2022-08-23T17:59:19.706Z,100102.28
2022-08-23T18:01:54.155Z,100096.95
2022-08-23T18:04:26.196Z,100095.97
2022-08-23T18:07:00.350Z,100090.88
2022-08-23T18:09:32.932Z,100090.88
2022-08-23T18:12:06.125Z,100087.27
2022-08-23T18:14:47.348Z,100087.27
2022-08-23T18:17:17.094Z,100091.99
2022-08-23T18:19:47.877Z,100090.64
2022-08-23T18:22:23.448Z,100096.46
2022-08-23T18:25:02.128Z,100094.84
2022-08-23T18:27:33.054Z,100094.84
2022-08-23T18:30:09.482Z,100088.52
2022-08-23T18:32:40.312Z,100085.14
2022-08-23T18:35:14.265Z,100085.14
2022-08-23T18:37:45.008Z,100086.00
2022-08-23T18:40:16.199Z,100092.61
2022-08-23T18:42:54.669Z,100085.30
2022-08-23T18:45:26.751Z,100086.67
2022-08-23T18:47:59.060Z,100086.67
2022-08-23T18:50:31.226Z,100087.02
2022-08-23T18:53:02.208Z,100080.67
2022-08-23T18:55:41.114Z,100080.67
2022-08-23T18:58:14.147Z,100085.38
2022-08-23T19:00:51.673Z,100085.24
2022-08-23T19:03:23.958Z,100085.24
2022-08-23T19:06:02.392Z,100081.30
2022-08-23T19:08:47.116Z,100078.63
2022-08-23T19:11:21.613Z,100078.63
2022-08-23T19:13:54.350Z,100083.95
2022-08-23T19:16:27.725Z,100087.46
2022-08-23T19:19:02.616Z,100087.46
2022-08-23T19:21:34.918Z,100086.41
2022-08-23T19:24:09.227Z,100081.89
2022-08-23T19:26:41.161Z,100077.69
2022-08-23T19:29:13.660Z,100078.31
2022-08-23T19:31:46.227Z,100078.31
2022-08-23T19:34:19.530Z,100085.91
2022-08-23T19:37:01.017Z,100088.30
2022-08-23T19:39:30.475Z,100088.30
2022-08-23T19:42:03.531Z,100085.27
2022-08-23T19:44:35.647Z,100085.86
2022-08-23T19:47:07.535Z,100083.45
2022-08-23T19:49:39.870Z,100091.25
2022-08-23T19:52:10.569Z,100090.66
2022-08-23T19:54:41.544Z,100091.50
2022-08-23T19:57:13.214Z,100091.50
2022-08-23T19:59:44.241Z,100094.73
2022-08-23T20:02:15.475Z,100091.17
2022-08-23T20:04:46.556Z,100086.59
2022-08-23T20:07:18.112Z,100085.84
2022-08-23T20:09:50.438Z,100088.03
2022-08-23T20:12:23.776Z,100092.35
2022-08-23T20:14:56.279Z,100092.35
2022-08-23T20:17:28.163Z,100093.19
2022-08-23T20:19:59.360Z,100083.89
2022-08-23T20:22:30.406Z,100083.89
2022-08-23T20:25:02.388Z,100092.23
2022-08-23T20:27:34.099Z,100091.52
2022-08-23T20:30:11.483Z,100100.23
2022-08-23T20:32:42.402Z,100100.23
2022-08-23T20:35:13.713Z,100091.27
2022-08-23T20:37:45.091Z,100089.92
2022-08-23T20:40:16.489Z,100089.92
2022-08-23T20:42:47.435Z,100089.99
2022-08-23T20:45:19.563Z,100090.19
2022-08-23T20:47:50.505Z,100081.27
2022-08-23T20:50:23.851Z,100091.87
2022-08-23T20:52:54.485Z,100088.69
2022-08-23T20:55:25.224Z,100088.69
2022-08-23T20:57:55.795Z,100089.97
2022-08-23T21:00:27.978Z,100094.23
2022-08-23T21:02:59.076Z,100088.38
2022-08-23T21:05:30.207Z,100088.38
2022-08-23T21:08:01.861Z,100088.66
2022-08-23T21:10:36.495Z,100092.93
2022-08-23T21:13:10.681Z,100083.47
2022-08-23T21:15:42.003Z,100083.47
2022-08-23T21:18:12.899Z,100080.05
2022-08-23T21:20:45.662Z,100092.69
2022-08-23T21:23:16.235Z,100087.84
2022-08-23T21:25:48.785Z,100083.86
2022-08-23T21:28:23.318Z,100083.86
2022-08-23T21:30:55.304Z,100083.23
2022-08-23T21:33:26.016Z,100089.33
2022-08-23T21:35:56.811Z,100084.87
2022-08-23T21:38:27.596Z,100079.04
2022-08-23T21:41:00.875Z,100083.74
2022-08-23T21:43:34.543Z,100075.06
2022-08-23T21:46:07.043Z,100077.08
2022-08-23T21:48:38.165Z,100083.48
2022-08-23T21:51:08.792Z,100083.48
2022-08-23T21:53:39.358Z,100083.91
2022-08-23T21:56:15.121Z,100081.71
2022-08-23T21:58:46.987Z,100081.27
2022-08-23T22:01:22.592Z,100081.27
2022-08-23T22:03:56.811Z,100080.09
2022-08-23T22:06:26.204Z,100080.09
2022-08-23T22:08:57.364Z,100082.55
2022-08-23T22:11:28.110Z,100077.05
2022-08-23T22:13:59.583Z,100082.93
2022-08-23T22:16:31.029Z,100082.93
2022-08-23T22:19:02.026Z,100077.92
2022-08-23T22:21:35.433Z,100076.73
2022-08-23T22:24:07.062Z,100076.73
2022-08-23T22:26:42.344Z,100071.14
2022-08-23T22:29:13.598Z,100069.72
2022-08-23T22:31:44.126Z,100069.72
2022-08-23T22:34:14.955Z,100076.22
2022-08-23T22:36:46.190Z,100075.03
2022-08-23T22:39:17.675Z,100075.03
2022-08-23T22:41:48.219Z,100075.23
2022-08-23T22:44:23.286Z,100078.67
2022-08-23T22:46:54.014Z,100080.48
2022-08-23T22:49:26.344Z,100074.45
2022-08-23T22:51:57.152Z,100084.61
2022-08-23T22:54:27.471Z,100084.61
2022-08-23T22:56:58.240Z,100075.77
2022-08-23T22:59:32.765Z,100075.77
2022-08-23T23:02:02.540Z,100076.48
2022-08-23T23:04:34.515Z,100071.02
2022-08-23T23:07:05.927Z,100071.02
2022-08-23T23:09:38.076Z,100073.48
2022-08-23T23:12:08.819Z,100074.73
2022-08-23T23:14:39.364Z,100074.73
2022-08-23T23:17:09.818Z,100074.73
2022-08-23T23:19:40.273Z,100079.55
2022-08-23T23:22:10.818Z,100077.37
2022-08-23T23:24:41.999Z,100081.83
2022-08-23T23:27:12.791Z,100075.77
2022-08-23T23:29:44.002Z,100072.13
2022-08-23T23:32:14.687Z,100072.13
2022-08-23T23:34:45.265Z,100076.81
2022-08-23T23:37:15.745Z,100078.22
2022-08-23T23:39:46.326Z,100083.50
2022-08-23T23:42:17.015Z,100083.50
2022-08-23T23:44:47.468Z,100079.10
2022-08-23T23:47:18.171Z,100083.16
2022-08-23T23:49:48.562Z,100083.16
2022-08-23T23:52:19.000Z,100082.95
2022-08-23T23:54:49.547Z,100086.81
2022-08-23T23:57:19.899Z,100086.81
2022-08-23T23:59:50.292Z,100088.25
